sensor_id;sensor_type;location;lat;lon;timestamp;P1;durP1;ratioP1;P2;durP2;ratioP2
17261;SDS011;9873;52.236;21.002;2022-07-05T00:07:35;8.65;;;7.75;;
17261;SDS011;9873;52.236;21.002;2022-07-05T00:17:37;8.35;;;7.55;;
17261;SDS011;9873;52.236;21.002;2022-07-05T00:27:39;8.73;;;5.97;;
17261;SDS011;9873;52.236;21.002;2022-07-05T00:37:42;7.18;;;5.50;;
17261;SDS011;9873;52.236;21.002;2022-07-05T00:47:48;7.03;;;6.20;;
17261;SDS011;9873;52.236;21.002;2022-07-05T00:57:55;6.38;;;5.78;;
17261;SDS011;9873;52.236;21.002;2022-07-05T01:07:59;9.38;;;6.47;;
17261;SDS011;9873;52.236;21.002;2022-07-05T01:18:02;7.32;;;6.38;;
17261;SDS011;9873;52.236;21.002;2022-07-05T01:28:04;10.07;;;7.88;;
17261;SDS011;9873;52.236;21.002;2022-07-05T01:38:11;8.18;;;7.38;;
17261;SDS011;9873;52.236;21.002;2022-07-05T01:48:17;8.77;;;6.70;;
17261;SDS011;9873;52.236;21.002;2022-07-05T01:58:20;11.27;;;7.47;;
17261;SDS011;9873;52.236;21.002;2022-07-05T02:08:28;9.00;;;8.07;;
17261;SDS011;9873;52.236;21.002;2022-07-05T02:18:32;8.75;;;6.82;;
17261;SDS011;9873;52.236;21.002;2022-07-05T02:28:36;7.47;;;6.68;;
17261;SDS011;9873;52.236;21.002;2022-07-05T02:38:43;7.88;;;7.07;;
17261;SDS011;9873;52.236;21.002;2022-07-05T02:48:53;9.10;;;7.70;;
17261;SDS011;9873;52.236;21.002;2022-07-05T02:59:03;7.10;;;6.22;;
17261;SDS011;9873;52.236;21.002;2022-07-05T03:09:12;7.28;;;6.55;;
17261;SDS011;9873;52.236;21.002;2022-07-05T03:19:14;7.65;;;6.57;;
17261;SDS011;9873;52.236;21.002;2022-07-05T03:29:20;6.40;;;5.80;;
17261;SDS011;9873;52.236;21.002;2022-07-05T03:39:25;8.20;;;5.57;;
17261;SDS011;9873;52.236;21.002;2022-07-05T03:49:32;6.47;;;5.60;;
17261;SDS011;9873;52.236;21.002;2022-07-05T03:59:35;6.55;;;5.97;;
17261;SDS011;9873;52.236;21.002;2022-07-05T04:09:38;7.15;;;5.50;;
17261;SDS011;9873;52.236;21.002;2022-07-05T04:19:48;6.53;;;5.93;;
17261;SDS011;9873;52.236;21.002;2022-07-05T04:29:53;6.10;;;4.95;;
17261;SDS011;9873;52.236;21.002;2022-07-05T04:39:57;5.22;;;4.80;;
17261;SDS011;9873;52.236;21.002;2022-07-05T04:49:59;5.22;;;4.72;;
17261;SDS011;9873;52.236;21.002;2022-07-05T05:00:04;6.03;;;5.05;;
17261;SDS011;9873;52.236;21.002;2022-07-05T05:10:07;6.82;;;4.80;;
17261;SDS011;9873;52.236;21.002;2022-07-05T05:20:15;4.63;;;4.18;;
17261;SDS011;9873;52.236;21.002;2022-07-05T05:30:21;4.82;;;4.13;;
17261;SDS011;9873;52.236;21.002;2022-07-05T05:40:29;5.35;;;3.95;;
17261;SDS011;9873;52.236;21.002;2022-07-05T05:50:34;5.55;;;4.45;;
17261;SDS011;9873;52.236;21.002;2022-07-05T06:00:41;4.78;;;3.83;;
17261;SDS011;9873;52.236;21.002;2022-07-05T06:10:44;8.85;;;4.18;;
17261;SDS011;9873;52.236;21.002;2022-07-05T06:20:55;7.45;;;3.55;;
17261;SDS011;9873;52.236;21.002;2022-07-05T06:30:57;4.20;;;3.80;;
17261;SDS011;9873;52.236;21.002;2022-07-05T06:40:59;4.22;;;3.45;;
17261;SDS011;9873;52.236;21.002;2022-07-05T06:51:04;5.63;;;4.30;;
17261;SDS011;9873;52.236;21.002;2022-07-05T07:01:06;4.00;;;3.60;;
17261;SDS011;9873;52.236;21.002;2022-07-05T07:11:21;5.95;;;3.40;;
17261;SDS011;9873;52.236;21.002;2022-07-05T07:21:24;7.32;;;3.72;;
17261;SDS011;9873;52.236;21.002;2022-07-05T07:31:26;4.22;;;3.65;;
17261;SDS011;9873;52.236;21.002;2022-07-05T07:41:28;6.32;;;3.97;;
17261;SDS011;9873;52.236;21.002;2022-07-05T07:51:30;5.45;;;3.50;;
17261;SDS011;9873;52.236;21.002;2022-07-05T08:01:32;5.93;;;3.72;;
17261;SDS011;9873;52.236;21.002;2022-07-05T08:11:42;6.38;;;3.42;;
17261;SDS011;9873;52.236;21.002;2022-07-05T08:21:45;3.88;;;3.47;;
17261;SDS011;9873;52.236;21.002;2022-07-05T08:31:49;3.67;;;3.17;;
17261;SDS011;9873;52.236;21.002;2022-07-05T08:41:55;5.28;;;2.88;;
17261;SDS011;9873;52.236;21.002;2022-07-05T08:52:03;4.45;;;2.83;;
17261;SDS011;9873;52.236;21.002;2022-07-05T09:02:07;5.30;;;3.28;;
17261;SDS011;9873;52.236;21.002;2022-07-05T09:12:16;7.07;;;2.92;;
17261;SDS011;9873;52.236;21.002;2022-07-05T09:22:24;5.45;;;3.08;;
17261;SDS011;9873;52.236;21.002;2022-07-05T09:32:26;5.03;;;3.60;;
17261;SDS011;9873;52.236;21.002;2022-07-05T09:42:31;3.50;;;3.20;;
17261;SDS011;9873;52.236;21.002;2022-07-05T09:52:36;5.70;;;3.30;;
17261;SDS011;9873;52.236;21.002;2022-07-05T10:02:40;4.65;;;3.20;;
17261;SDS011;9873;52.236;21.002;2022-07-05T10:12:53;3.40;;;3.10;;
17261;SDS011;9873;52.236;21.002;2022-07-05T10:22:56;5.00;;;2.83;;
17261;SDS011;9873;52.236;21.002;2022-07-05T10:33:07;5.32;;;3.10;;
17261;SDS011;9873;52.236;21.002;2022-07-05T10:43:10;7.10;;;3.25;;
17261;SDS011;9873;52.236;21.002;2022-07-05T10:53:21;4.22;;;3.13;;
17261;SDS011;9873;52.236;21.002;2022-07-05T11:03:36;4.88;;;3.00;;
17261;SDS011;9873;52.236;21.002;2022-07-05T11:13:44;3.03;;;2.70;;
17261;SDS011;9873;52.236;21.002;2022-07-05T11:23:48;4.97;;;2.70;;
17261;SDS011;9873;52.236;21.002;2022-07-05T11:34:13;3.70;;;2.67;;
17261;SDS011;9873;52.236;21.002;2022-07-05T11:44:19;6.70;;;2.70;;
17261;SDS011;9873;52.236;21.002;2022-07-05T11:54:43;2.78;;;2.50;;
17261;SDS011;9873;52.236;21.002;2022-07-05T12:04:52;5.10;;;2.80;;
17261;SDS011;9873;52.236;21.002;2022-07-05T12:14:58;4.47;;;3.13;;
17261;SDS011;9873;52.236;21.002;2022-07-05T12:25:06;3.08;;;2.55;;
17261;SDS011;9873;52.236;21.002;2022-07-05T12:35:30;3.30;;;2.50;;
17261;SDS011;9873;52.236;21.002;2022-07-05T12:45:35;3.30;;;2.42;;
17261;SDS011;9873;52.236;21.002;2022-07-05T12:55:45;3.65;;;2.17;;
17261;SDS011;9873;52.236;21.002;2022-07-05T13:06:11;4.22;;;2.20;;
17261;SDS011;9873;52.236;21.002;2022-07-05T13:16:13;4.70;;;2.40;;
17261;SDS011;9873;52.236;21.002;2022-07-05T13:26:18;2.75;;;2.10;;
17261;SDS011;9873;52.236;21.002;2022-07-05T13:36:21;6.18;;;1.75;;
17261;SDS011;9873;52.236;21.002;2022-07-05T13:46:27;4.70;;;1.75;;
17261;SDS011;9873;52.236;21.002;2022-07-05T13:56:32;2.85;;;1.80;;
17261;SDS011;9873;52.236;21.002;2022-07-05T14:06:35;2.08;;;1.77;;
17261;SDS011;9873;52.236;21.002;2022-07-05T14:16:42;3.33;;;1.70;;
17261;SDS011;9873;52.236;21.002;2022-07-05T14:26:46;3.03;;;1.67;;
17261;SDS011;9873;52.236;21.002;2022-07-05T14:36:51;2.20;;;1.55;;
17261;SDS011;9873;52.236;21.002;2022-07-05T14:46:57;4.78;;;1.80;;
17261;SDS011;9873;52.236;21.002;2022-07-05T14:57:00;2.00;;;1.73;;
17261;SDS011;9873;52.236;21.002;2022-07-05T15:07:02;3.50;;;1.90;;
17261;SDS011;9873;52.236;21.002;2022-07-05T15:17:04;2.55;;;1.90;;
17261;SDS011;9873;52.236;21.002;2022-07-05T15:27:07;3.90;;;2.85;;
17261;SDS011;9873;52.236;21.002;2022-07-05T15:37:19;4.85;;;3.03;;
17261;SDS011;9873;52.236;21.002;2022-07-05T15:47:22;4.55;;;3.13;;
17261;SDS011;9873;52.236;21.002;2022-07-05T15:57:27;3.35;;;3.00;;
17261;SDS011;9873;52.236;21.002;2022-07-05T16:07:30;6.55;;;2.88;;
17261;SDS011;9873;52.236;21.002;2022-07-05T16:17:32;5.30;;;3.70;;
17261;SDS011;9873;52.236;21.002;2022-07-05T16:27:34;6.40;;;4.03;;
17261;SDS011;9873;52.236;21.002;2022-07-05T16:37:38;4.15;;;3.55;;
17261;SDS011;9873;52.236;21.002;2022-07-05T16:47:43;6.10;;;4.80;;
17261;SDS011;9873;52.236;21.002;2022-07-05T16:57:45;12.07;;;4.65;;
17261;SDS011;9873;52.236;21.002;2022-07-05T17:07:49;5.68;;;4.32;;
17261;SDS011;9873;52.236;21.002;2022-07-05T17:17:51;5.07;;;4.07;;
17261;SDS011;9873;52.236;21.002;2022-07-05T17:27:54;7.47;;;5.13;;
17261;SDS011;9873;52.236;21.002;2022-07-05T17:37:58;6.88;;;5.07;;
17261;SDS011;9873;52.236;21.002;2022-07-05T17:48:00;7.50;;;5.38;;
17261;SDS011;9873;52.236;21.002;2022-07-05T17:58:02;5.40;;;4.90;;
17261;SDS011;9873;52.236;21.002;2022-07-05T18:08:09;6.40;;;5.45;;
17261;SDS011;9873;52.236;21.002;2022-07-05T18:18:14;7.30;;;5.60;;
17261;SDS011;9873;52.236;21.002;2022-07-05T18:28:17;5.43;;;4.93;;
17261;SDS011;9873;52.236;21.002;2022-07-05T18:38:21;6.55;;;5.70;;
17261;SDS011;9873;52.236;21.002;2022-07-05T18:48:26;8.65;;;6.45;;
17261;SDS011;9873;52.236;21.002;2022-07-05T18:58:31;9.80;;;8.20;;
17261;SDS011;9873;52.236;21.002;2022-07-05T19:08:33;9.80;;;8.25;;
17261;SDS011;9873;52.236;21.002;2022-07-05T19:18:56;11.25;;;8.68;;
17261;SDS011;9873;52.236;21.002;2022-07-05T19:29:00;9.60;;;8.23;;
17261;SDS011;9873;52.236;21.002;2022-07-05T19:39:08;11.20;;;9.05;;
17261;SDS011;9873;52.236;21.002;2022-07-05T19:49:15;10.13;;;8.52;;
17261;SDS011;9873;52.236;21.002;2022-07-05T19:59:17;8.85;;;7.95;;
17261;SDS011;9873;52.236;21.002;2022-07-05T20:09:20;8.55;;;7.72;;
17261;SDS011;9873;52.236;21.002;2022-07-05T20:19:24;9.32;;;8.43;;
17261;SDS011;9873;52.236;21.002;2022-07-05T20:29:26;10.13;;;7.65;;
17261;SDS011;9873;52.236;21.002;2022-07-05T20:39:34;9.50;;;7.60;;
17261;SDS011;9873;52.236;21.002;2022-07-05T20:49:44;8.80;;;7.90;;
17261;SDS011;9873;52.236;21.002;2022-07-05T20:59:49;9.63;;;8.70;;
17261;SDS011;9873;52.236;21.002;2022-07-05T21:09:52;10.30;;;9.30;;
17261;SDS011;9873;52.236;21.002;2022-07-05T21:19:56;10.30;;;8.85;;
17261;SDS011;9873;52.236;21.002;2022-07-05T21:29:58;10.30;;;8.00;;
17261;SDS011;9873;52.236;21.002;2022-07-05T21:40:01;10.07;;;8.70;;
17261;SDS011;9873;52.236;21.002;2022-07-05T21:50:06;9.20;;;8.20;;
17261;SDS011;9873;52.236;21.002;2022-07-05T22:00:21;9.05;;;8.25;;
17261;SDS011;9873;52.236;21.002;2022-07-05T22:10:46;8.73;;;7.93;;
17261;SDS011;9873;52.236;21.002;2022-07-05T22:20:50;10.00;;;8.57;;
17261;SDS011;9873;52.236;21.002;2022-07-05T22:30:56;10.52;;;9.13;;
17261;SDS011;9873;52.236;21.002;2022-07-05T22:40:59;10.82;;;8.30;;
17261;SDS011;9873;52.236;21.002;2022-07-05T22:51:04;11.10;;;8.68;;
17261;SDS011;9873;52.236;21.002;2022-07-05T23:01:07;9.40;;;8.43;;
17261;SDS011;9873;52.236;21.002;2022-07-05T23:11:11;10.45;;;9.35;;
17261;SDS011;9873;52.236;21.002;2022-07-05T23:21:17;8.48;;;7.68;;
17261;SDS011;9873;52.236;21.002;2022-07-05T23:31:21;9.95;;;8.82;;
17261;SDS011;9873;52.236;21.002;2022-07-05T23:41:24;9.10;;;8.13;;
17261;SDS011;9873;52.236;21.002;2022-07-05T23:51:26;9.93;;;8.93;;
